sensor_id;sensor_type;location;lat;lon;timestamp;temperature;humidity
5415;DHT22;2730;51.512;7.504;2023-08-17T00:01:34;17.80;99.90
5415;DHT22;2730;51.512;7.504;2023-08-17T00:04:01;17.70;99.90
5415;DHT22;2730;51.512;7.504;2023-08-17T00:06:28;17.70;99.90
5415;DHT22;2730;51.512;7.504;2023-08-17T00:08:55;17.60;99.90
5415;DHT22;2730;51.512;7.504;2023-08-17T00:11:23;17.70;99.90
5415;DHT22;2730;51.512;7.504;2023-08-17T00:13:50;17.70;99.90
5415;DHT22;2730;51.512;7.504;2023-08-17T00:16:17;17.60;99.90
5415;DHT22;2730;51.512;7.504;2023-08-17T00:18:44;17.60;99.90
5415;DHT22;2730;51.512;7.504;2023-08-17T00:21:11;17.50;99.90
5415;DHT22;2730;51.512;7.504;2023-08-17T00:23:38;17.60;99.90
5415;DHT22;2730;51.512;7.504;2023-08-17T00:26:04;17.60;99.90
5415;DHT22;2730;51.512;7.504;2023-08-17T00:28:33;17.60;99.90
5415;DHT22;2730;51.512;7.504;2023-08-17T00:31:00;17.60;99.90
5415;DHT22;2730;51.512;7.504;2023-08-17T00:33:27;17.50;99.90
5415;DHT22;2730;51.512;7.504;2023-08-17T00:35:53;17.40;99.90
5415;DHT22;2730;51.512;7.504;2023-08-17T00:38:20;17.20;99.90
5415;DHT22;2730;51.512;7.504;2023-08-17T00:40:47;17.00;99.90
5415;DHT22;2730;51.512;7.504;2023-08-17T00:43:14;16.90;99.90
5415;DHT22;2730;51.512;7.504;2023-08-17T00:45:44;16.80;99.90
5415;DHT22;2730;51.512;7.504;2023-08-17T00:48:13;16.60;99.90
5415;DHT22;2730;51.512;7.504;2023-08-17T00:50:41;16.70;99.90
5415;DHT22;2730;51.512;7.504;2023-08-17T00:53:08;16.60;99.90
5415;DHT22;2730;51.512;7.504;2023-08-17T00:55:38;16.70;99.90
5415;DHT22;2730;51.512;7.504;2023-08-17T00:58:05;16.70;99.90
5415;DHT22;2730;51.512;7.504;2023-08-17T01:00:32;16.70;99.90
5415;DHT22;2730;51.512;7.504;2023-08-17T01:03:00;16.70;99.90
5415;DHT22;2730;51.512;7.504;2023-08-17T01:05:28;16.70;99.90
5415;DHT22;2730;51.512;7.504;2023-08-17T01:07:56;16.70;99.90
5415;DHT22;2730;51.512;7.504;2023-08-17T01:10:23;16.70;99.90
5415;DHT22;2730;51.512;7.504;2023-08-17T01:12:57;16.60;99.90
5415;DHT22;2730;51.512;7.504;2023-08-17T01:15:34;16.60;99.90
5415;DHT22;2730;51.512;7.504;2023-08-17T01:18:07;16.70;99.90
5415;DHT22;2730;51.512;7.504;2023-08-17T01:20:36;16.60;99.90
5415;DHT22;2730;51.512;7.504;2023-08-17T01:23:05;16.60;99.90
5415;DHT22;2730;51.512;7.504;2023-08-17T01:25:32;16.60;99.90
5415;DHT22;2730;51.512;7.504;2023-08-17T01:28:02;16.60;99.90
5415;DHT22;2730;51.512;7.504;2023-08-17T01:30:31;16.60;99.90
5415;DHT22;2730;51.512;7.504;2023-08-17T01:33:06;16.50;99.90
5415;DHT22;2730;51.512;7.504;2023-08-17T01:35:38;16.50;99.90
5415;DHT22;2730;51.512;7.504;2023-08-17T01:38:12;16.40;99.90
5415;DHT22;2730;51.512;7.504;2023-08-17T01:40:38;16.50;99.90
5415;DHT22;2730;51.512;7.504;2023-08-17T01:43:06;16.50;99.90
5415;DHT22;2730;51.512;7.504;2023-08-17T01:45:33;16.40;99.90
5415;DHT22;2730;51.512;7.504;2023-08-17T01:48:00;16.50;99.90
5415;DHT22;2730;51.512;7.504;2023-08-17T01:50:26;16.40;99.90
5415;DHT22;2730;51.512;7.504;2023-08-17T01:52:53;16.40;99.90
5415;DHT22;2730;51.512;7.504;2023-08-17T01:55:22;16.40;99.90
5415;DHT22;2730;51.512;7.504;2023-08-17T01:57:49;16.40;99.90
5415;DHT22;2730;51.512;7.504;2023-08-17T02:00:16;16.50;99.90
5415;DHT22;2730;51.512;7.504;2023-08-17T02:02:43;16.40;99.90
5415;DHT22;2730;51.512;7.504;2023-08-17T02:05:09;16.30;99.90
5415;DHT22;2730;51.512;7.504;2023-08-17T02:07:36;16.30;99.90
5415;DHT22;2730;51.512;7.504;2023-08-17T02:10:04;16.30;99.90
5415;DHT22;2730;51.512;7.504;2023-08-17T02:12:32;16.30;99.90
5415;DHT22;2730;51.512;7.504;2023-08-17T02:14:59;16.30;99.90
5415;DHT22;2730;51.512;7.504;2023-08-17T02:17:25;16.30;99.90
5415;DHT22;2730;51.512;7.504;2023-08-17T02:19:52;16.30;99.90
5415;DHT22;2730;51.512;7.504;2023-08-17T02:22:19;16.30;99.90
5415;DHT22;2730;51.512;7.504;2023-08-17T02:24:46;16.30;99.90
5415;DHT22;2730;51.512;7.504;2023-08-17T02:27:12;16.30;99.90
5415;DHT22;2730;51.512;7.504;2023-08-17T02:29:41;16.30;99.90
5415;DHT22;2730;51.512;7.504;2023-08-17T02:32:07;16.30;99.90
5415;DHT22;2730;51.512;7.504;2023-08-17T02:34:34;16.30;99.90
5415;DHT22;2730;51.512;7.504;2023-08-17T02:37:01;16.30;99.90
5415;DHT22;2730;51.512;7.504;2023-08-17T02:39:27;16.40;99.90
5415;DHT22;2730;51.512;7.504;2023-08-17T02:41:54;16.40;99.90
5415;DHT22;2730;51.512;7.504;2023-08-17T02:44:21;16.40;99.90
5415;DHT22;2730;51.512;7.504;2023-08-17T02:46:49;16.40;99.90
5415;DHT22;2730;51.512;7.504;2023-08-17T02:49:16;16.40;99.90
5415;DHT22;2730;51.512;7.504;2023-08-17T02:51:42;16.40;99.90
5415;DHT22;2730;51.512;7.504;2023-08-17T02:54:09;16.40;99.90
5415;DHT22;2730;51.512;7.504;2023-08-17T02:56:36;16.30;99.90
5415;DHT22;2730;51.512;7.504;2023-08-17T02:59:03;16.30;99.90
5415;DHT22;2730;51.512;7.504;2023-08-17T03:01:30;16.40;99.90
5415;DHT22;2730;51.512;7.504;2023-08-17T03:03:59;16.40;99.90
5415;DHT22;2730;51.512;7.504;2023-08-17T03:06:25;16.40;99.90
5415;DHT22;2730;51.512;7.504;2023-08-17T03:08:52;16.40;99.90
5415;DHT22;2730;51.512;7.504;2023-08-17T03:11:20;16.40;99.90
5415;DHT22;2730;51.512;7.504;2023-08-17T03:13:47;16.40;99.90
5415;DHT22;2730;51.512;7.504;2023-08-17T03:16:14;16.30;99.90
5415;DHT22;2730;51.512;7.504;2023-08-17T03:18:41;16.30;99.90
5415;DHT22;2730;51.512;7.504;2023-08-17T03:21:09;16.40;99.90
5415;DHT22;2730;51.512;7.504;2023-08-17T03:23:36;16.40;99.90
5415;DHT22;2730;51.512;7.504;2023-08-17T03:26:03;16.40;99.90
5415;DHT22;2730;51.512;7.504;2023-08-17T03:28:30;16.40;99.90
5415;DHT22;2730;51.512;7.504;2023-08-17T03:30:56;16.30;99.90
5415;DHT22;2730;51.512;7.504;2023-08-17T03:33:23;16.30;99.90
5415;DHT22;2730;51.512;7.504;2023-08-17T03:35:50;16.30;99.90
5415;DHT22;2730;51.512;7.504;2023-08-17T03:38:18;16.20;99.90
5415;DHT22;2730;51.512;7.504;2023-08-17T03:40:45;16.20;99.90
5415;DHT22;2730;51.512;7.504;2023-08-17T03:43:12;16.20;99.90
5415;DHT22;2730;51.512;7.504;2023-08-17T03:45:41;16.20;99.90
5415;DHT22;2730;51.512;7.504;2023-08-17T03:48:08;16.20;99.90
5415;DHT22;2730;51.512;7.504;2023-08-17T03:50:34;16.20;99.90
5415;DHT22;2730;51.512;7.504;2023-08-17T03:53:01;16.30;99.90
5415;DHT22;2730;51.512;7.504;2023-08-17T03:55:29;16.30;99.90
5415;DHT22;2730;51.512;7.504;2023-08-17T03:57:56;16.30;99.90
5415;DHT22;2730;51.512;7.504;2023-08-17T04:00:23;16.30;99.90
5415;DHT22;2730;51.512;7.504;2023-08-17T04:02:50;16.30;99.90
5415;DHT22;2730;51.512;7.504;2023-08-17T04:05:17;16.30;99.90
5415;DHT22;2730;51.512;7.504;2023-08-17T04:07:44;16.30;99.90
5415;DHT22;2730;51.512;7.504;2023-08-17T04:10:13;16.30;99.90
5415;DHT22;2730;51.512;7.504;2023-08-17T04:12:41;16.30;99.90
5415;DHT22;2730;51.512;7.504;2023-08-17T04:15:08;16.30;99.90
5415;DHT22;2730;51.512;7.504;2023-08-17T04:17:35;16.30;99.90
5415;DHT22;2730;51.512;7.504;2023-08-17T04:20:02;16.30;99.90
5415;DHT22;2730;51.512;7.504;2023-08-17T04:22:30;16.30;99.90
5415;DHT22;2730;51.512;7.504;2023-08-17T04:24:57;16.30;99.90
5415;DHT22;2730;51.512;7.504;2023-08-17T04:27:23;16.30;99.90
5415;DHT22;2730;51.512;7.504;2023-08-17T04:29:52;16.30;99.90
5415;DHT22;2730;51.512;7.504;2023-08-17T04:32:18;16.30;99.90
5415;DHT22;2730;51.512;7.504;2023-08-17T04:34:45;16.30;99.90
5415;DHT22;2730;51.512;7.504;2023-08-17T04:37:13;16.30;99.90
5415;DHT22;2730;51.512;7.504;2023-08-17T04:39:40;16.30;99.90
5415;DHT22;2730;51.512;7.504;2023-08-17T04:42:09;16.30;99.90
5415;DHT22;2730;51.512;7.504;2023-08-17T04:44:35;16.30;99.90
5415;DHT22;2730;51.512;7.504;2023-08-17T04:47:04;16.30;99.90
5415;DHT22;2730;51.512;7.504;2023-08-17T04:49:31;16.30;99.90
5415;DHT22;2730;51.512;7.504;2023-08-17T04:51:57;16.30;99.90
5415;DHT22;2730;51.512;7.504;2023-08-17T04:54:24;16.30;99.90
5415;DHT22;2730;51.512;7.504;2023-08-17T04:56:51;16.30;99.90
5415;DHT22;2730;51.512;7.504;2023-08-17T04:59:18;16.30;99.90
5415;DHT22;2730;51.512;7.504;2023-08-17T05:01:44;16.30;99.90
5415;DHT22;2730;51.512;7.504;2023-08-17T05:04:12;16.40;99.90
5415;DHT22;2730;51.512;7.504;2023-08-17T05:06:39;16.40;99.90
5415;DHT22;2730;51.512;7.504;2023-08-17T05:09:06;16.40;99.90
5415;DHT22;2730;51.512;7.504;2023-08-17T05:11:33;16.40;99.90
5415;DHT22;2730;51.512;7.504;2023-08-17T05:14:00;16.40;99.90
5415;DHT22;2730;51.512;7.504;2023-08-17T05:16:26;16.40;99.90
5415;DHT22;2730;51.512;7.504;2023-08-17T05:18:53;16.50;99.90
5415;DHT22;2730;51.512;7.504;2023-08-17T05:21:21;16.50;99.90
5415;DHT22;2730;51.512;7.504;2023-08-17T05:23:48;16.60;99.90
5415;DHT22;2730;51.512;7.504;2023-08-17T05:26:15;16.60;99.90
5415;DHT22;2730;51.512;7.504;2023-08-17T05:28:41;16.60;99.90
5415;DHT22;2730;51.512;7.504;2023-08-17T05:31:09;16.60;99.90
5415;DHT22;2730;51.512;7.504;2023-08-17T05:33:36;16.60;99.90
5415;DHT22;2730;51.512;7.504;2023-08-17T05:36:03;16.60;99.90
5415;DHT22;2730;51.512;7.504;2023-08-17T05:38:31;16.60;99.90
5415;DHT22;2730;51.512;7.504;2023-08-17T05:40:58;16.70;99.90
5415;DHT22;2730;51.512;7.504;2023-08-17T05:43:27;16.60;99.90
5415;DHT22;2730;51.512;7.504;2023-08-17T05:45:54;16.60;99.90
5415;DHT22;2730;51.512;7.504;2023-08-17T05:48:23;16.70;99.90
5415;DHT22;2730;51.512;7.504;2023-08-17T05:50:50;16.70;99.90
5415;DHT22;2730;51.512;7.504;2023-08-17T05:53:16;16.60;99.90
5415;DHT22;2730;51.512;7.504;2023-08-17T05:55:44;16.70;99.90
5415;DHT22;2730;51.512;7.504;2023-08-17T05:58:11;16.80;99.90
5415;DHT22;2730;51.512;7.504;2023-08-17T06:00:38;16.80;99.90
5415;DHT22;2730;51.512;7.504;2023-08-17T06:03:05;16.80;99.90
5415;DHT22;2730;51.512;7.504;2023-08-17T06:05:32;16.90;99.90
5415;DHT22;2730;51.512;7.504;2023-08-17T06:07:59;16.90;99.90
5415;DHT22;2730;51.512;7.504;2023-08-17T06:10:25;16.90;99.90
5415;DHT22;2730;51.512;7.504;2023-08-17T06:12:54;16.90;99.90
5415;DHT22;2730;51.512;7.504;2023-08-17T06:15:21;16.90;99.90
5415;DHT22;2730;51.512;7.504;2023-08-17T06:17:48;16.80;99.90
5415;DHT22;2730;51.512;7.504;2023-08-17T06:20:16;16.90;99.90
5415;DHT22;2730;51.512;7.504;2023-08-17T06:22:44;16.80;99.90
5415;DHT22;2730;51.512;7.504;2023-08-17T06:25:10;16.90;99.90
5415;DHT22;2730;51.512;7.504;2023-08-17T06:27:37;16.90;99.90
5415;DHT22;2730;51.512;7.504;2023-08-17T06:30:06;16.80;99.90
5415;DHT22;2730;51.512;7.504;2023-08-17T06:32:33;16.80;99.90
5415;DHT22;2730;51.512;7.504;2023-08-17T06:35:00;16.80;99.90
5415;DHT22;2730;51.512;7.504;2023-08-17T06:37:27;16.80;99.90
5415;DHT22;2730;51.512;7.504;2023-08-17T06:39:54;16.90;99.90
5415;DHT22;2730;51.512;7.504;2023-08-17T06:42:20;16.90;99.90
5415;DHT22;2730;51.512;7.504;2023-08-17T06:44:47;16.80;99.90
5415;DHT22;2730;51.512;7.504;2023-08-17T06:47:15;16.90;99.90
5415;DHT22;2730;51.512;7.504;2023-08-17T06:49:42;16.90;99.90
5415;DHT22;2730;51.512;7.504;2023-08-17T06:52:09;16.80;99.90
5415;DHT22;2730;51.512;7.504;2023-08-17T06:54:36;16.80;99.90
5415;DHT22;2730;51.512;7.504;2023-08-17T06:57:03;16.80;99.90
5415;DHT22;2730;51.512;7.504;2023-08-17T06:59:30;16.80;99.90
5415;DHT22;2730;51.512;7.504;2023-08-17T07:01:58;16.80;99.90
5415;DHT22;2730;51.512;7.504;2023-08-17T07:04:27;16.80;99.90
5415;DHT22;2730;51.512;7.504;2023-08-17T07:06:53;16.80;99.90
5415;DHT22;2730;51.512;7.504;2023-08-17T07:09:20;17.00;99.90
5415;DHT22;2730;51.512;7.504;2023-08-17T07:11:47;16.90;99.90
5415;DHT22;2730;51.512;7.504;2023-08-17T07:14:14;16.80;99.90
5415;DHT22;2730;51.512;7.504;2023-08-17T07:16:41;16.80;99.90
5415;DHT22;2730;51.512;7.504;2023-08-17T07:19:07;16.80;99.90
5415;DHT22;2730;51.512;7.504;2023-08-17T07:21:35;16.90;99.90
5415;DHT22;2730;51.512;7.504;2023-08-17T07:24:12;17.00;99.90
5415;DHT22;2730;51.512;7.504;2023-08-17T07:26:39;17.10;99.90
5415;DHT22;2730;51.512;7.504;2023-08-17T07:29:06;17.10;99.90
5415;DHT22;2730;51.512;7.504;2023-08-17T07:31:32;17.20;99.90
5415;DHT22;2730;51.512;7.504;2023-08-17T07:34:03;17.40;99.90
5415;DHT22;2730;51.512;7.504;2023-08-17T07:36:30;17.40;99.90
5415;DHT22;2730;51.512;7.504;2023-08-17T07:38:59;17.40;99.90
5415;DHT22;2730;51.512;7.504;2023-08-17T07:41:26;17.50;99.90
5415;DHT22;2730;51.512;7.504;2023-08-17T07:43:53;17.60;99.90
5415;DHT22;2730;51.512;7.504;2023-08-17T07:46:20;17.60;99.90
5415;DHT22;2730;51.512;7.504;2023-08-17T07:48:47;17.70;99.90
5415;DHT22;2730;51.512;7.504;2023-08-17T07:51:14;17.70;99.90
5415;DHT22;2730;51.512;7.504;2023-08-17T07:53:41;17.70;99.90
5415;DHT22;2730;51.512;7.504;2023-08-17T07:56:09;17.70;99.90
5415;DHT22;2730;51.512;7.504;2023-08-17T07:58:36;17.70;99.90
5415;DHT22;2730;51.512;7.504;2023-08-17T08:01:02;17.70;99.90
5415;DHT22;2730;51.512;7.504;2023-08-17T08:03:29;17.80;99.90
5415;DHT22;2730;51.512;7.504;2023-08-17T08:05:56;17.90;99.90
5415;DHT22;2730;51.512;7.504;2023-08-17T08:08:23;18.00;99.90
5415;DHT22;2730;51.512;7.504;2023-08-17T08:10:49;18.10;99.90
5415;DHT22;2730;51.512;7.504;2023-08-17T08:13:17;18.20;99.90
5415;DHT22;2730;51.512;7.504;2023-08-17T08:15:44;18.30;99.90
5415;DHT22;2730;51.512;7.504;2023-08-17T08:18:11;18.40;99.90
5415;DHT22;2730;51.512;7.504;2023-08-17T08:20:38;18.20;99.90
5415;DHT22;2730;51.512;7.504;2023-08-17T08:23:05;18.20;99.90
5415;DHT22;2730;51.512;7.504;2023-08-17T08:25:31;18.20;99.90
5415;DHT22;2730;51.512;7.504;2023-08-17T08:27:58;18.20;99.90
5415;DHT22;2730;51.512;7.504;2023-08-17T08:30:26;18.30;99.90
5415;DHT22;2730;51.512;7.504;2023-08-17T08:32:53;18.20;99.90
5415;DHT22;2730;51.512;7.504;2023-08-17T08:35:21;18.20;99.90
5415;DHT22;2730;51.512;7.504;2023-08-17T08:37:49;18.20;99.90
5415;DHT22;2730;51.512;7.504;2023-08-17T08:40:17;18.20;99.90
5415;DHT22;2730;51.512;7.504;2023-08-17T08:42:44;18.20;99.90
5415;DHT22;2730;51.512;7.504;2023-08-17T08:45:11;18.30;99.90
5415;DHT22;2730;51.512;7.504;2023-08-17T08:47:41;18.30;99.90
5415;DHT22;2730;51.512;7.504;2023-08-17T08:50:09;18.40;99.90
5415;DHT22;2730;51.512;7.504;2023-08-17T08:52:42;18.50;99.90
5415;DHT22;2730;51.512;7.504;2023-08-17T08:55:11;18.50;99.90
5415;DHT22;2730;51.512;7.504;2023-08-17T08:57:39;18.50;99.90
5415;DHT22;2730;51.512;7.504;2023-08-17T09:00:07;18.50;99.90
5415;DHT22;2730;51.512;7.504;2023-08-17T09:02:35;18.50;99.90
5415;DHT22;2730;51.512;7.504;2023-08-17T09:05:05;18.50;99.90
5415;DHT22;2730;51.512;7.504;2023-08-17T09:07:33;18.40;99.90
5415;DHT22;2730;51.512;7.504;2023-08-17T09:09:59;18.40;99.90
5415;DHT22;2730;51.512;7.504;2023-08-17T09:12:26;18.40;99.90
5415;DHT22;2730;51.512;7.504;2023-08-17T09:14:53;18.50;99.90
5415;DHT22;2730;51.512;7.504;2023-08-17T09:17:23;18.40;99.90
5415;DHT22;2730;51.512;7.504;2023-08-17T09:19:50;18.50;99.90
5415;DHT22;2730;51.512;7.504;2023-08-17T09:22:23;18.40;99.90
5415;DHT22;2730;51.512;7.504;2023-08-17T09:24:50;18.50;99.90
5415;DHT22;2730;51.512;7.504;2023-08-17T09:27:17;18.60;99.90
5415;DHT22;2730;51.512;7.504;2023-08-17T09:29:44;18.60;99.90
5415;DHT22;2730;51.512;7.504;2023-08-17T09:32:14;18.60;99.90
5415;DHT22;2730;51.512;7.504;2023-08-17T09:34:41;18.60;99.90
5415;DHT22;2730;51.512;7.504;2023-08-17T09:37:08;18.70;99.90
5415;DHT22;2730;51.512;7.504;2023-08-17T09:39:37;18.70;99.90
5415;DHT22;2730;51.512;7.504;2023-08-17T09:42:04;18.70;99.90
5415;DHT22;2730;51.512;7.504;2023-08-17T09:44:33;18.70;99.90
5415;DHT22;2730;51.512;7.504;2023-08-17T09:47:00;18.70;99.90
5415;DHT22;2730;51.512;7.504;2023-08-17T09:49:30;19.00;99.90
5415;DHT22;2730;51.512;7.504;2023-08-17T09:51:59;19.20;99.90
5415;DHT22;2730;51.512;7.504;2023-08-17T09:54:26;19.50;99.90
5415;DHT22;2730;51.512;7.504;2023-08-17T09:56:54;19.90;99.90
5415;DHT22;2730;51.512;7.504;2023-08-17T09:59:21;20.30;99.90
5415;DHT22;2730;51.512;7.504;2023-08-17T10:01:50;20.70;99.90
5415;DHT22;2730;51.512;7.504;2023-08-17T10:04:21;20.90;99.90
5415;DHT22;2730;51.512;7.504;2023-08-17T10:06:50;20.80;99.90
5415;DHT22;2730;51.512;7.504;2023-08-17T10:09:23;20.80;99.90
5415;DHT22;2730;51.512;7.504;2023-08-17T10:11:52;20.70;99.90
5415;DHT22;2730;51.512;7.504;2023-08-17T10:14:23;20.60;99.90
5415;DHT22;2730;51.512;7.504;2023-08-17T10:16:57;20.70;99.90
5415;DHT22;2730;51.512;7.504;2023-08-17T10:19:33;20.70;99.90
5415;DHT22;2730;51.512;7.504;2023-08-17T10:22:08;20.70;99.90
5415;DHT22;2730;51.512;7.504;2023-08-17T10:24:36;20.70;99.90
5415;DHT22;2730;51.512;7.504;2023-08-17T10:27:04;20.60;99.90
5415;DHT22;2730;51.512;7.504;2023-08-17T10:29:33;20.60;99.90
5415;DHT22;2730;51.512;7.504;2023-08-17T10:32:01;20.40;99.90
5415;DHT22;2730;51.512;7.504;2023-08-17T10:34:28;20.30;99.90
5415;DHT22;2730;51.512;7.504;2023-08-17T10:36:55;20.10;99.90
5415;DHT22;2730;51.512;7.504;2023-08-17T10:39:25;20.10;99.90
5415;DHT22;2730;51.512;7.504;2023-08-17T10:41:52;20.00;99.90
5415;DHT22;2730;51.512;7.504;2023-08-17T10:44:39;20.00;99.90
5415;DHT22;2730;51.512;7.504;2023-08-17T10:47:22;20.00;99.90
5415;DHT22;2730;51.512;7.504;2023-08-17T10:49:50;20.00;99.90
5415;DHT22;2730;51.512;7.504;2023-08-17T10:52:25;19.80;99.90
5415;DHT22;2730;51.512;7.504;2023-08-17T10:54:53;19.90;99.90
5415;DHT22;2730;51.512;7.504;2023-08-17T10:57:34;20.00;99.90
5415;DHT22;2730;51.512;7.504;2023-08-17T11:00:14;19.90;99.90
5415;DHT22;2730;51.512;7.504;2023-08-17T11:02:43;19.90;99.90
5415;DHT22;2730;51.512;7.504;2023-08-17T11:05:10;20.00;99.90
5415;DHT22;2730;51.512;7.504;2023-08-17T11:07:40;19.80;99.90
5415;DHT22;2730;51.512;7.504;2023-08-17T11:10:11;20.00;99.90
5415;DHT22;2730;51.512;7.504;2023-08-17T11:12:41;20.10;99.90
5415;DHT22;2730;51.512;7.504;2023-08-17T11:15:10;20.30;99.90
5415;DHT22;2730;51.512;7.504;2023-08-17T11:17:36;20.40;99.90
5415;DHT22;2730;51.512;7.504;2023-08-17T11:20:04;20.40;99.90
5415;DHT22;2730;51.512;7.504;2023-08-17T11:22:31;20.50;99.90
5415;DHT22;2730;51.512;7.504;2023-08-17T11:24:58;20.40;99.90
5415;DHT22;2730;51.512;7.504;2023-08-17T11:27:25;20.40;99.90
5415;DHT22;2730;51.512;7.504;2023-08-17T11:29:53;20.40;99.90
5415;DHT22;2730;51.512;7.504;2023-08-17T11:32:21;20.30;99.90
5415;DHT22;2730;51.512;7.504;2023-08-17T11:34:48;20.30;99.90
5415;DHT22;2730;51.512;7.504;2023-08-17T11:37:16;20.20;99.90
5415;DHT22;2730;51.512;7.504;2023-08-17T11:39:43;20.50;99.90
5415;DHT22;2730;51.512;7.504;2023-08-17T11:42:10;20.70;99.90
5415;DHT22;2730;51.512;7.504;2023-08-17T11:44:38;20.80;99.90
5415;DHT22;2730;51.512;7.504;2023-08-17T11:47:04;21.00;99.90
5415;DHT22;2730;51.512;7.504;2023-08-17T11:49:33;21.10;99.90
5415;DHT22;2730;51.512;7.504;2023-08-17T11:51:59;21.10;99.90
5415;DHT22;2730;51.512;7.504;2023-08-17T11:54:26;21.00;99.90
5415;DHT22;2730;51.512;7.504;2023-08-17T11:56:53;21.00;99.90
5415;DHT22;2730;51.512;7.504;2023-08-17T11:59:20;21.10;99.90
5415;DHT22;2730;51.512;7.504;2023-08-17T12:01:48;21.10;99.90
5415;DHT22;2730;51.512;7.504;2023-08-17T12:04:15;21.30;99.90
5415;DHT22;2730;51.512;7.504;2023-08-17T12:06:44;21.30;99.90
5415;DHT22;2730;51.512;7.504;2023-08-17T12:09:11;21.30;99.90
5415;DHT22;2730;51.512;7.504;2023-08-17T12:11:39;21.30;99.90
5415;DHT22;2730;51.512;7.504;2023-08-17T12:14:11;21.20;99.90
5415;DHT22;2730;51.512;7.504;2023-08-17T12:16:45;21.10;99.90
5415;DHT22;2730;51.512;7.504;2023-08-17T12:19:13;20.80;99.90
5415;DHT22;2730;51.512;7.504;2023-08-17T12:21:40;20.70;99.90
5415;DHT22;2730;51.512;7.504;2023-08-17T12:24:10;20.90;99.90
5415;DHT22;2730;51.512;7.504;2023-08-17T12:26:41;20.90;99.90
5415;DHT22;2730;51.512;7.504;2023-08-17T12:29:09;20.90;99.90
5415;DHT22;2730;51.512;7.504;2023-08-17T12:31:36;20.90;99.90
5415;DHT22;2730;51.512;7.504;2023-08-17T12:34:03;20.70;99.90
5415;DHT22;2730;51.512;7.504;2023-08-17T12:36:31;20.60;99.90
5415;DHT22;2730;51.512;7.504;2023-08-17T12:38:58;20.60;99.90
5415;DHT22;2730;51.512;7.504;2023-08-17T12:41:26;20.60;99.90
5415;DHT22;2730;51.512;7.504;2023-08-17T12:43:53;20.60;99.90
5415;DHT22;2730;51.512;7.504;2023-08-17T12:46:20;20.70;99.90
5415;DHT22;2730;51.512;7.504;2023-08-17T12:48:47;20.60;99.90
5415;DHT22;2730;51.512;7.504;2023-08-17T12:51:14;20.60;99.90
5415;DHT22;2730;51.512;7.504;2023-08-17T12:53:41;20.50;99.90
5415;DHT22;2730;51.512;7.504;2023-08-17T12:56:08;20.60;99.90
5415;DHT22;2730;51.512;7.504;2023-08-17T12:58:36;20.60;99.90
5415;DHT22;2730;51.512;7.504;2023-08-17T13:01:03;20.60;99.90
5415;DHT22;2730;51.512;7.504;2023-08-17T13:03:30;20.70;99.90
5415;DHT22;2730;51.512;7.504;2023-08-17T13:05:57;20.80;99.90
5415;DHT22;2730;51.512;7.504;2023-08-17T13:08:24;21.00;99.90
5415;DHT22;2730;51.512;7.504;2023-08-17T13:10:51;20.90;99.90
5415;DHT22;2730;51.512;7.504;2023-08-17T13:13:18;20.90;99.90
5415;DHT22;2730;51.512;7.504;2023-08-17T13:15:46;20.80;99.90
5415;DHT22;2730;51.512;7.504;2023-08-17T13:18:13;20.60;99.90
5415;DHT22;2730;51.512;7.504;2023-08-17T13:20:40;20.60;99.90
5415;DHT22;2730;51.512;7.504;2023-08-17T13:23:06;20.80;99.90
5415;DHT22;2730;51.512;7.504;2023-08-17T13:25:33;20.90;99.90
5415;DHT22;2730;51.512;7.504;2023-08-17T13:28:00;21.10;99.90
5415;DHT22;2730;51.512;7.504;2023-08-17T13:30:27;21.10;99.90
5415;DHT22;2730;51.512;7.504;2023-08-17T13:32:55;21.10;99.90
5415;DHT22;2730;51.512;7.504;2023-08-17T13:35:22;21.20;99.90
5415;DHT22;2730;51.512;7.504;2023-08-17T13:37:51;21.30;99.90
5415;DHT22;2730;51.512;7.504;2023-08-17T13:40:19;21.30;99.90
5415;DHT22;2730;51.512;7.504;2023-08-17T13:42:46;21.10;99.90
5415;DHT22;2730;51.512;7.504;2023-08-17T13:45:12;21.00;99.90
5415;DHT22;2730;51.512;7.504;2023-08-17T13:47:39;20.90;99.90
5415;DHT22;2730;51.512;7.504;2023-08-17T13:50:08;20.80;99.90
5415;DHT22;2730;51.512;7.504;2023-08-17T13:52:35;20.70;99.90
5415;DHT22;2730;51.512;7.504;2023-08-17T13:55:02;20.80;99.90
5415;DHT22;2730;51.512;7.504;2023-08-17T13:57:29;20.90;99.90
5415;DHT22;2730;51.512;7.504;2023-08-17T13:59:55;20.80;99.90
5415;DHT22;2730;51.512;7.504;2023-08-17T14:02:22;20.80;99.90
5415;DHT22;2730;51.512;7.504;2023-08-17T14:04:49;20.90;99.90
5415;DHT22;2730;51.512;7.504;2023-08-17T14:07:17;20.90;99.90
5415;DHT22;2730;51.512;7.504;2023-08-17T14:09:44;20.90;99.90
5415;DHT22;2730;51.512;7.504;2023-08-17T14:12:11;20.80;99.90
5415;DHT22;2730;51.512;7.504;2023-08-17T14:14:38;20.80;99.90
5415;DHT22;2730;51.512;7.504;2023-08-17T14:17:04;20.90;99.90
5415;DHT22;2730;51.512;7.504;2023-08-17T14:19:31;20.90;99.90
5415;DHT22;2730;51.512;7.504;2023-08-17T14:21:58;20.90;99.90
5415;DHT22;2730;51.512;7.504;2023-08-17T14:24:27;20.90;99.90
5415;DHT22;2730;51.512;7.504;2023-08-17T14:26:54;20.90;99.90
5415;DHT22;2730;51.512;7.504;2023-08-17T14:29:22;20.90;99.90
5415;DHT22;2730;51.512;7.504;2023-08-17T14:31:49;20.90;99.90
5415;DHT22;2730;51.512;7.504;2023-08-17T14:34:16;21.00;99.90
5415;DHT22;2730;51.512;7.504;2023-08-17T14:36:42;21.00;99.90
5415;DHT22;2730;51.512;7.504;2023-08-17T14:39:09;21.00;99.90
5415;DHT22;2730;51.512;7.504;2023-08-17T14:41:37;20.90;99.90
5415;DHT22;2730;51.512;7.504;2023-08-17T14:44:05;20.90;99.90
5415;DHT22;2730;51.512;7.504;2023-08-17T14:46:31;20.90;99.90
5415;DHT22;2730;51.512;7.504;2023-08-17T14:48:58;21.00;99.90
5415;DHT22;2730;51.512;7.504;2023-08-17T14:51:25;21.00;99.90
5415;DHT22;2730;51.512;7.504;2023-08-17T14:53:52;21.10;99.90
5415;DHT22;2730;51.512;7.504;2023-08-17T14:56:19;21.10;99.90
5415;DHT22;2730;51.512;7.504;2023-08-17T14:58:47;21.00;99.90
5415;DHT22;2730;51.512;7.504;2023-08-17T15:01:14;21.10;99.90
5415;DHT22;2730;51.512;7.504;2023-08-17T15:03:40;21.00;99.90
5415;DHT22;2730;51.512;7.504;2023-08-17T15:06:08;20.90;99.90
5415;DHT22;2730;51.512;7.504;2023-08-17T15:08:35;20.80;99.90
5415;DHT22;2730;51.512;7.504;2023-08-17T15:11:02;20.80;99.90
5415;DHT22;2730;51.512;7.504;2023-08-17T15:13:29;21.00;99.90
5415;DHT22;2730;51.512;7.504;2023-08-17T15:15:57;21.10;99.90
5415;DHT22;2730;51.512;7.504;2023-08-17T15:18:24;21.10;99.90
5415;DHT22;2730;51.512;7.504;2023-08-17T15:20:51;21.10;99.90
5415;DHT22;2730;51.512;7.504;2023-08-17T15:23:17;21.20;99.90
5415;DHT22;2730;51.512;7.504;2023-08-17T15:25:44;21.30;99.90
5415;DHT22;2730;51.512;7.504;2023-08-17T15:28:11;21.40;99.90
5415;DHT22;2730;51.512;7.504;2023-08-17T15:30:38;21.50;99.90
5415;DHT22;2730;51.512;7.504;2023-08-17T15:33:07;21.50;99.90
5415;DHT22;2730;51.512;7.504;2023-08-17T15:35:33;21.50;99.90
5415;DHT22;2730;51.512;7.504;2023-08-17T15:38:00;21.50;99.90
5415;DHT22;2730;51.512;7.504;2023-08-17T15:40:27;21.40;99.90
5415;DHT22;2730;51.512;7.504;2023-08-17T15:42:54;21.10;99.90
5415;DHT22;2730;51.512;7.504;2023-08-17T15:45:21;21.00;99.90
5415;DHT22;2730;51.512;7.504;2023-08-17T15:47:47;20.60;99.90
5415;DHT22;2730;51.512;7.504;2023-08-17T15:50:16;20.60;99.90
5415;DHT22;2730;51.512;7.504;2023-08-17T15:52:43;20.50;99.90
5415;DHT22;2730;51.512;7.504;2023-08-17T15:55:10;20.40;99.90
5415;DHT22;2730;51.512;7.504;2023-08-17T15:57:37;20.40;99.90
5415;DHT22;2730;51.512;7.504;2023-08-17T16:00:04;20.30;99.90
5415;DHT22;2730;51.512;7.504;2023-08-17T16:02:31;20.20;99.90
5415;DHT22;2730;51.512;7.504;2023-08-17T16:04:58;20.20;99.90